Nearby METAR Reports

 

KMTN - Baltimore/Martin, Maryland, USA
Distance from station: SSE 8mi, 13km
Updated: Thu, 11-Feb-2016 5:55pm EST
Partly cloudy
Partly cloudy
 Wind from W
Wind: W 17 mph , 28 km/h, Gust: 31 mph , 50 km/h
Temperature: 25°F , -4°C
Wind Chill: 12°F , -11°C
Dew Point: 3°F , -16°C
Humidity: 39%
Barometer: 30.22 inHg , 1023.4 hPa
Clouds: Partly cloudy
Visibility: 10 miles , 16 km
Cloud details: Partly cloudy 6000 ft
2016/02/11 22:55 KMTN 112255Z 28015G27KT 10SM SCT060 M04/M16 A3022
KDMH - Baltimore/Dwntwn, Maryland, USA
Distance from station: SW 12mi, 19km
Updated: Thu, 11-Feb-2016 5:54pm EST

 
Temperature: 25°F , -4°C
Dew Point: -0°F , -18°C
Humidity: 33%
Barometer: 30.15 inHg , 1021 hPa
2016/02/11 22:54 KDMH 112254Z AUTO M04/M18 A3015 RMK AO1 SLP210 T10441178
 
KBWI - Balto/Wash Intl, Maryland, USA
Distance from station: SSW 20mi, 33km
Updated: Thu, 11-Feb-2016 5:54pm EST
Few Clouds
Few Clouds
 Wind from WNW
Wind: WNW 14 mph , 22 km/h
Temperature: 23°F , -5°C
Wind Chill: 11°F , -12°C
Dew Point: -0°F , -18°C
Humidity: 36%
Barometer: 30.21 inHg , 1023 hPa
Clouds: Few Clouds
Visibility: 10 miles , 16 km
Cloud details: Few Clouds 6000 ft
2016/02/11 22:54 KBWI 112254Z 30012KT 10SM FEW060 M05/M18 A3021 RMK AO2 SLP231 VIRGA DSNT W-NW T10501183
KDMW - Carroll Cnty, Maryland, USA
Distance from station: WNW 30mi, 48km
Updated: Thu, 11-Feb-2016 6:00pm EST
Partly cloudy
Partly cloudy
 Wind from W
Wind: W 7 mph , 11 km/h, Gust: 13 mph , 20 km/h
Temperature: 19°F , -7°C
Wind Chill: 10°F , -12°C
Dew Point: 7°F , -14°C
Humidity: 58%
Barometer: 30.16 inHg , 1021.3 hPa
Clouds: Partly cloudy
Visibility: 10 miles , 16 km
Cloud details: Partly cloudy 9000 ft
2016/02/11 23:00 KDMW 112300Z AUTO 27006G11KT 10SM SCT090 M07/M14 A3016 RMK AO2
 
KNAK - Annapolis/Naval, Maryland, USA
Distance from station: S 30mi, 48km
Updated: Thu, 11-Feb-2016 5:54pm EST
Clear
Clear
 Wind from WNW
Wind: WNW 10 mph , 17 km/h, Gust: 20 mph , 31 km/h
Temperature: 27°F , -3°C
Wind Chill: 18°F , -8°C
Dew Point: 5°F , -15°C
Humidity: 39%
Barometer: 30.21 inHg , 1023 hPa
Clouds: Clear
Visibility: 10 miles , 16 km
2016/02/11 22:54 KNAK 112254Z AUTO 30009G17KT 10SM CLR M03/M15 A3021 RMK AO2 SLP231 T10331150
KW29 - Stevensville, Maryland, USA
Distance from station: SSE 31mi, 50km
Updated: Thu, 11-Feb-2016 5:59pm EST

 Wind from NW
Wind: NW 20 mph , 31 km/h
Temperature: 27°F , -3°C
Wind Chill: 13°F , -11°C
Dew Point: 3°F , -16°C
Humidity: 36%
Barometer: 30.21 inHg , 1023 hPa
Visibility: 10 miles , 16 km
2016/02/11 22:59 KW29 112259Z AUTO 31017KT 10SM M03/M16 A3021 RMK AO1
 
KCGS - College Park, Maryland, USA
Distance from station: SW 38mi, 61km
Updated: Thu, 11-Feb-2016 5:55pm EST
Mostly cloudy
Mostly cloudy
 Wind from W
Wind: W 9 mph , 15 km/h, Gust: 17 mph , 28 km/h
Temperature: 27°F , -3°C
Wind Chill: 18°F , -8°C
Dew Point: -0°F , -18°C
Humidity: 31%
Barometer: 30.22 inHg , 1023.4 hPa
Clouds: Mostly cloudy
Visibility: 10 miles , 16 km
Cloud details: Mostly cloudy 7000 ft
Mostly cloudy 7500 ft
2016/02/11 22:55 KCGS 112255Z AUTO 28008G15KT 10SM BKN070 BKN075 M03/M18 A3022 RMK AO1
KGAI - Gaithersburg, Maryland, USA
Distance from station: WSW 40mi, 65km
Updated: Thu, 11-Feb-2016 5:55pm EST
Clear
Clear
 Wind from WNW
Wind: WNW 15 mph , 24 km/h, Gust: 24 mph , 39 km/h
Temperature: 19°F , -7°C
Wind Chill: 5°F , -15°C
Dew Point: -0°F , -18°C
Humidity: 42%
Barometer: 30.22 inHg , 1023.4 hPa
Clouds: Clear
Visibility: 10 miles , 16 km
2016/02/11 22:55 KGAI 112255Z AUTO 29013G21KT 10SM CLR M07/M18 A3022 RMK AO1
 
KTHV - York, Pennsylvania, USA
Distance from station: NNW 40mi, 65km
Updated: Thu, 11-Feb-2016 5:53pm EST
Clear
Clear
 Wind from WNW
Wind: WNW 12 mph , 19 km/h
Temperature: 18°F , -8°C
Wind Chill: 5°F , -15°C
Dew Point: 1°F , -17°C
Humidity: 49%
Barometer: 30.15 inHg , 1021 hPa
Clouds: Clear
Visibility: 10 miles , 16 km
2016/02/11 22:53 KTHV 112253Z AUTO 29010KT 10SM CLR M08/M17 A3015 RMK AO2 SLP222 T10781167
KFDK - Frederick, Maryland, USA
Distance from station: W 47mi, 75km
Updated: Thu, 11-Feb-2016 5:48pm EST
Mostly cloudy
Mostly cloudy
 Wind from WNW
Wind: WNW 14 mph , 22 km/h, Gust: 22 mph , 35 km/h
Temperature: 21°F , -6°C
Wind Chill: 8°F , -13°C
Dew Point: 5°F , -15°C
Humidity: 49%
Barometer: 30.25 inHg , 1024.4 hPa
Clouds: Mostly cloudy
Visibility: 10 miles , 16 km
Cloud details: Mostly cloudy 6000 ft
2016/02/11 22:48 KFDK 112248Z 29012G19KT 10SM BKN060 M06/M15 A3025
 
KESN - Easton/Newnam, Maryland, USA
Distance from station: SSE 48mi, 78km
Updated: Thu, 11-Feb-2016 5:50pm EST
Partly cloudy
Partly cloudy
 Wind from WNW
Wind: WNW 16 mph , 26 km/h, Gust: 29 mph , 46 km/h
Temperature: 27°F , -3°C
Wind Chill: 15°F , -9°C
Dew Point: 3°F , -16°C
Humidity: 36%
Barometer: 30.23 inHg , 1023.7 hPa
Clouds: Partly cloudy
Visibility: 10 miles , 16 km
Cloud details: Partly cloudy 6000 ft
2016/02/11 22:50 KESN 112250Z 30014G25KT 10SM SCT060 M03/M16 A3023
KDCA - Washington/Natl, Washington D.c., USA
Distance from station: SW 49mi, 79km
Updated: Thu, 11-Feb-2016 5:52pm EST
Few Clouds
Few Clouds
 Wind from NW
Wind: NW 16 mph , 26 km/h
Temperature: 27°F , -3°C
Wind Chill: 15°F , -9°C
Dew Point: -0°F , -18°C
Humidity: 31%
Barometer: 30.24 inHg , 1024 hPa
Clouds: Few Clouds
Visibility: 10 miles , 16 km
Cloud details: Few Clouds 7000 ft
2016/02/11 22:52 KDCA 112252Z 32014KT 10SM FEW070 M03/M18 A3024 RMK AO2 SLP239 T10331178
 
KLNS - Lancaster, Pennsylvania, USA
Distance from station: N 49mi, 79km
Updated: Thu, 11-Feb-2016 5:53pm EST
Clear
Clear
 Wind from WNW
Wind: WNW 16 mph , 26 km/h
Temperature: 19°F , -7°C
Wind Chill: 4°F , -16°C
Dew Point: 1°F , -17°C
Humidity: 45%
Barometer: 30.13 inHg , 1020.3 hPa
Clouds: Clear
Visibility: 10 miles , 16 km
2016/02/11 22:53 KLNS 112253Z 29014KT 10SM CLR M07/M17 A3013 RMK AO2 PK WND 28029/2158 SLP209 T10721167
KILG - Wilmington, Delaware, USA
Distance from station: ENE 50mi, 81km
Updated: Thu, 11-Feb-2016 5:51pm EST
Clear
Clear
 Wind from WNW
Wind: WNW 18 mph , 30 km/h
Temperature: 21°F , -6°C
Wind Chill: 6°F , -14°C
Dew Point: 3°F , -16°C
Humidity: 45%
Barometer: 30.16 inHg , 1021.3 hPa
Clouds: Clear
Visibility: 10 miles , 16 km
2016/02/11 22:51 KILG 112251Z 29016KT 10SM CLR M06/M16 A3016 RMK AO2 PK WND 29028/2201 SLP215 T10561156